createdAt,value
2018-07-05T00:00:02.923Z,8.27
2018-07-05T00:04:16.586Z,8.13
2018-07-05T00:08:30.149Z,8.30
2018-07-05T00:12:43.911Z,8.40
2018-07-05T00:16:57.472Z,8.33
2018-07-05T00:21:11.083Z,8.30
2018-07-05T00:25:24.601Z,8.33
2018-07-05T00:29:38.242Z,8.30
2018-07-05T00:33:51.859Z,7.63
2018-07-05T00:38:05.523Z,8.50
2018-07-05T00:42:19.420Z,7.37
2018-07-05T00:46:33.083Z,7.83
2018-07-05T00:50:46.873Z,8.40
2018-07-05T00:55:00.346Z,8.70
2018-07-05T00:59:13.827Z,8.20
2018-07-05T01:03:27.460Z,8.37
2018-07-05T01:07:41.019Z,9.10
2018-07-05T01:11:54.582Z,9.43
2018-07-05T01:16:08.854Z,8.73
2018-07-05T01:20:22.323Z,10.33
2018-07-05T01:24:35.996Z,9.90
2018-07-05T01:28:49.550Z,7.87
2018-07-05T01:33:03.123Z,7.63
2018-07-05T01:37:16.716Z,7.50
2018-07-05T01:41:30.461Z,10.03
2018-07-05T01:45:44.180Z,8.87
2018-07-05T01:49:57.660Z,9.40
2018-07-05T01:54:11.220Z,8.10
2018-07-05T01:58:24.635Z,8.37
2018-07-05T02:02:38.341Z,8.70
2018-07-05T02:06:51.826Z,7.93
2018-07-05T02:11:05.305Z,7.93
2018-07-05T02:15:19.181Z,9.20
2018-07-05T02:19:32.898Z,8.87
2018-07-05T02:23:46.609Z,8.53
2018-07-05T02:28:00.128Z,7.10
2018-07-05T02:32:13.698Z,7.53
2018-07-05T02:36:30.278Z,7.40
2018-07-05T02:40:43.859Z,8.03
2018-07-05T02:44:58.503Z,7.60
2018-07-05T02:49:12.020Z,8.80
2018-07-05T02:53:25.695Z,7.87
2018-07-05T02:57:39.280Z,6.30
2018-07-05T03:01:52.784Z,7.57
2018-07-05T03:06:06.562Z,8.43
2018-07-05T03:10:20.240Z,8.00
2018-07-05T03:14:33.823Z,7.90
2018-07-05T03:18:47.498Z,7.57
2018-07-05T03:23:01.027Z,8.33
2018-07-05T03:27:15.021Z,7.23
2018-07-05T03:31:28.814Z,7.03
2018-07-05T03:35:42.482Z,7.87
2018-07-05T03:39:56.319Z,5.80
2018-07-05T03:44:09.799Z,5.23
2018-07-05T03:48:23.620Z,7.67
2018-07-05T03:52:37.432Z,7.60
2018-07-05T03:56:50.964Z,8.13
2018-07-05T04:01:04.624Z,7.80
2018-07-05T04:05:18.242Z,6.90
2018-07-05T04:09:31.991Z,7.37
2018-07-05T04:13:45.622Z,7.77
2018-07-05T04:17:59.362Z,7.90
2018-07-05T04:22:13.011Z,8.30
2018-07-05T04:26:26.616Z,7.70
2018-07-05T04:30:40.111Z,7.37
2018-07-05T04:34:53.750Z,6.57
2018-07-05T04:39:07.313Z,8.30
2018-07-05T04:43:20.938Z,7.50
2018-07-05T04:47:34.582Z,8.13
2018-07-05T04:51:48.219Z,6.50
2018-07-05T04:56:01.979Z,8.50
2018-07-05T05:00:15.656Z,6.20
2018-07-05T05:04:29.284Z,7.30
2018-07-05T05:08:42.925Z,7.60
2018-07-05T05:12:56.593Z,7.87
2018-07-05T05:17:10.319Z,7.20
2018-07-05T05:21:23.890Z,8.33
2018-07-05T05:25:37.630Z,7.03
2018-07-05T05:29:51.160Z,7.33
2018-07-05T05:34:04.767Z,8.47
2018-07-05T05:38:18.534Z,6.73
2018-07-05T05:42:31.991Z,8.93
2018-07-05T05:46:45.532Z,7.93
2018-07-05T05:50:59.610Z,7.37
2018-07-05T05:55:13.122Z,6.43
2018-07-05T05:59:26.839Z,6.43
2018-07-05T06:03:40.592Z,4.23
2018-07-05T06:07:54.146Z,3.67
2018-07-05T06:12:07.751Z,3.70
2018-07-05T06:16:21.459Z,7.93
2018-07-05T06:20:35.549Z,4.37
2018-07-05T06:24:50.105Z,3.33
2018-07-05T06:29:03.928Z,3.53
2018-07-05T06:33:17.546Z,4.85
2018-07-05T06:37:31.635Z,3.33
2018-07-05T06:41:45.423Z,3.42
2018-07-05T06:45:59.128Z,4.33
2018-07-05T06:50:12.836Z,3.57
2018-07-05T06:54:26.442Z,3.87
2018-07-05T06:58:40.201Z,3.93
2018-07-05T07:02:54.011Z,3.87
2018-07-05T07:07:07.650Z,3.37
2018-07-05T07:11:21.259Z,5.10
2018-07-05T07:15:35.063Z,3.93
2018-07-05T07:19:48.758Z,4.17
2018-07-05T07:24:02.426Z,3.73
2018-07-05T07:28:15.961Z,3.63
2018-07-05T07:32:29.580Z,3.67
2018-07-05T07:36:43.266Z,3.73
2018-07-05T07:40:57.112Z,4.23
2018-07-05T07:44:58.238Z,3.40
2018-07-05T07:48:59.372Z,3.43
2018-07-05T07:53:00.532Z,3.70
2018-07-05T07:57:01.663Z,3.60
2018-07-05T08:01:03.116Z,3.83
2018-07-05T08:05:04.284Z,4.17
2018-07-05T08:09:05.673Z,3.87
2018-07-05T08:13:07.118Z,4.40
2018-07-05T08:17:08.262Z,5.53
2018-07-05T08:21:09.424Z,4.77
2018-07-05T08:25:10.556Z,5.20
2018-07-05T08:29:11.931Z,4.60
2018-07-05T08:33:13.134Z,5.23
2018-07-05T08:37:14.350Z,6.13
2018-07-05T08:41:15.460Z,5.37
2018-07-05T08:45:17.316Z,4.70
2018-07-05T08:49:18.856Z,5.17
2018-07-05T08:53:19.995Z,3.70
2018-07-05T08:57:21.375Z,4.57
2018-07-05T09:01:22.679Z,4.00
2018-07-05T09:05:23.846Z,5.00
2018-07-05T09:09:24.979Z,4.40
2018-07-05T09:13:26.123Z,4.97
2018-07-05T09:17:27.369Z,4.93
2018-07-05T09:21:28.413Z,4.10
2018-07-05T09:25:29.541Z,4.33
2018-07-05T09:29:30.673Z,4.90
2018-07-05T09:33:31.837Z,4.70
2018-07-05T09:37:33.704Z,3.87
2018-07-05T09:41:35.588Z,4.60
2018-07-05T09:45:36.723Z,5.50
2018-07-05T09:49:38.129Z,5.60
2018-07-05T09:53:39.276Z,5.13
2018-07-05T09:57:40.426Z,5.57
2018-07-05T10:01:41.575Z,5.33
2018-07-05T10:05:43.002Z,4.93
2018-07-05T10:09:45.452Z,5.90
2018-07-05T10:13:47.074Z,5.33
2018-07-05T10:17:48.458Z,4.87
2018-07-05T10:21:49.626Z,5.57
2018-07-05T10:25:50.762Z,5.17
2018-07-05T10:30:04.389Z,4.20
2018-07-05T10:34:05.536Z,3.90
2018-07-05T10:38:06.662Z,4.53
2018-07-05T10:42:20.285Z,4.60
2018-07-05T10:46:33.860Z,4.77
2018-07-05T10:50:47.430Z,4.00
2018-07-05T10:55:01.024Z,6.80
2018-07-05T10:59:14.607Z,5.40
2018-07-05T11:03:28.513Z,4.20
2018-07-05T11:07:42.096Z,3.47
2018-07-05T11:11:55.867Z,4.43
2018-07-05T11:16:10.304Z,4.47
2018-07-05T11:20:24.480Z,5.40
2018-07-05T11:24:38.240Z,5.97
2018-07-05T11:28:51.819Z,6.20
2018-07-05T11:33:05.699Z,7.80
2018-07-05T11:37:19.834Z,7.17
2018-07-05T11:41:33.611Z,6.20
2018-07-05T11:45:47.215Z,8.97
2018-07-05T11:50:01.810Z,7.37
2018-07-05T11:54:15.503Z,8.40
2018-07-05T11:58:29.357Z,7.50
2018-07-05T12:02:43.325Z,5.33
2018-07-05T12:06:57.777Z,5.43
2018-07-05T12:11:11.597Z,4.90
2018-07-05T12:15:25.386Z,7.67
2018-07-05T12:19:38.939Z,6.73
2018-07-05T12:23:52.637Z,4.50
2018-07-05T12:28:06.168Z,5.77
2018-07-05T12:32:19.914Z,8.33
2018-07-05T12:36:33.620Z,7.60
2018-07-05T12:40:47.480Z,11.37
2018-07-05T12:45:01.268Z,10.70
2018-07-05T12:49:14.995Z,9.90
2018-07-05T12:53:28.899Z,10.70
2018-07-05T12:57:42.579Z,12.37
2018-07-05T13:01:56.191Z,7.43
2018-07-05T13:06:09.716Z,5.37
2018-07-05T13:10:23.259Z,6.90
2018-07-05T13:14:36.874Z,8.97
2018-07-05T13:18:50.409Z,7.37
2018-07-05T13:23:03.910Z,6.73
2018-07-05T13:27:17.439Z,9.13
2018-07-05T13:31:31.248Z,9.07
2018-07-05T13:35:44.809Z,10.37
2018-07-05T13:39:58.713Z,7.73
2018-07-05T13:44:12.146Z,10.23
2018-07-05T13:48:25.941Z,10.03
2018-07-05T13:52:39.558Z,10.10
2018-07-05T13:56:53.233Z,11.87
2018-07-05T14:01:06.889Z,10.57
2018-07-05T14:05:20.629Z,7.53
2018-07-05T14:09:34.838Z,9.70
2018-07-05T14:13:48.618Z,9.27
2018-07-05T14:18:02.407Z,7.00
2018-07-05T14:22:16.763Z,9.20
2018-07-05T14:26:30.600Z,11.00
2018-07-05T14:30:44.439Z,7.43
2018-07-05T14:34:58.039Z,7.50
2018-07-05T14:39:11.681Z,5.63
2018-07-05T14:43:25.360Z,7.40
2018-07-05T14:47:39.064Z,7.57
2018-07-05T14:51:52.622Z,7.33
2018-07-05T14:56:06.420Z,6.60
2018-07-05T15:00:20.058Z,7.13
2018-07-05T15:04:33.739Z,7.83
2018-07-05T15:08:47.397Z,6.77
2018-07-05T15:13:01.136Z,6.50
2018-07-05T15:17:15.023Z,7.97
2018-07-05T15:21:28.798Z,10.50
2018-07-05T15:25:42.605Z,9.83
2018-07-05T15:29:56.316Z,9.23
2018-07-05T15:34:10.032Z,10.07
2018-07-05T15:38:23.808Z,10.53
2018-07-05T15:42:37.344Z,9.23
2018-07-05T15:46:51.109Z,10.20
2018-07-05T15:51:04.869Z,11.93
2018-07-05T15:55:18.530Z,9.87
2018-07-05T15:59:32.285Z,13.47
2018-07-05T16:03:46.019Z,13.33
2018-07-05T16:07:59.592Z,12.67
2018-07-05T16:12:13.203Z,19.60
2018-07-05T16:16:26.811Z,21.83
2018-07-05T16:20:40.612Z,18.83
2018-07-05T16:24:54.135Z,15.83
2018-07-05T16:29:07.730Z,15.77
2018-07-05T16:33:21.555Z,22.37
2018-07-05T16:37:35.180Z,20.70
2018-07-05T16:41:48.797Z,25.00
2018-07-05T16:46:02.497Z,21.53
2018-07-05T16:50:16.231Z,18.63
2018-07-05T16:54:29.878Z,22.47
2018-07-05T16:58:43.498Z,18.60
2018-07-05T17:02:57.146Z,17.50
2018-07-05T17:07:10.695Z,19.50
2018-07-05T17:11:24.522Z,19.90
2018-07-05T17:15:38.226Z,19.27
2018-07-05T17:19:51.928Z,20.10
2018-07-05T17:24:05.731Z,21.73
2018-07-05T17:28:19.415Z,23.57
2018-07-05T17:32:33.035Z,23.97
2018-07-05T17:36:46.751Z,22.13
2018-07-05T17:41:00.483Z,21.00
2018-07-05T17:45:14.042Z,23.13
2018-07-05T17:49:27.691Z,25.73
2018-07-05T17:53:41.604Z,24.73
2018-07-05T17:57:55.455Z,25.47
2018-07-05T18:02:09.146Z,22.87
2018-07-05T18:06:22.991Z,23.63
2018-07-05T18:10:36.560Z,24.67
2018-07-05T18:14:50.313Z,25.87
2018-07-05T18:19:03.906Z,24.90
2018-07-05T18:23:17.394Z,27.20
2018-07-05T18:27:31.389Z,30.70
2018-07-05T18:31:45.077Z,30.13
2018-07-05T18:35:58.932Z,29.00
2018-07-05T18:40:12.566Z,29.13
2018-07-05T18:44:26.106Z,24.90
2018-07-05T18:48:40.449Z,24.30
2018-07-05T18:52:54.029Z,23.17
2018-07-05T18:57:07.706Z,19.93
2018-07-05T19:01:21.418Z,21.57
2018-07-05T19:05:35.258Z,18.77
2018-07-05T19:09:49.329Z,18.13
2018-07-05T19:14:02.972Z,19.87
2018-07-05T19:18:16.730Z,20.23
2018-07-05T19:22:30.288Z,19.47
2018-07-05T19:26:43.949Z,19.10
2018-07-05T19:30:57.589Z,21.30
2018-07-05T19:35:11.208Z,21.10
2018-07-05T19:39:24.815Z,22.53
2018-07-05T19:43:38.748Z,20.30
2018-07-05T19:47:52.426Z,19.13
2018-07-05T19:52:06.137Z,16.97
2018-07-05T19:56:19.795Z,19.53
2018-07-05T20:00:33.600Z,18.40
2018-07-05T20:04:47.172Z,21.13
2018-07-05T20:09:00.796Z,18.17
2018-07-05T20:13:14.442Z,19.20
2018-07-05T20:17:28.269Z,17.23
2018-07-05T20:21:41.923Z,16.70
2018-07-05T20:25:55.889Z,18.70
2018-07-05T20:30:09.483Z,18.27
2018-07-05T20:34:23.098Z,20.77
2018-07-05T20:38:36.622Z,20.57
2018-07-05T20:42:50.684Z,21.40
2018-07-05T20:47:04.318Z,20.10
2018-07-05T20:51:18.247Z,21.10
2018-07-05T20:55:32.111Z,22.30
2018-07-05T20:59:45.999Z,23.00
2018-07-05T21:03:59.463Z,23.20
2018-07-05T21:08:13.071Z,22.30
2018-07-05T21:12:26.671Z,22.67
2018-07-05T21:16:40.404Z,22.73
2018-07-05T21:20:54.122Z,19.33
2018-07-05T21:25:07.792Z,20.50
2018-07-05T21:29:21.341Z,19.23
2018-07-05T21:33:35.101Z,16.57
2018-07-05T21:37:49.656Z,24.13
2018-07-05T21:42:03.456Z,22.50
2018-07-05T21:46:17.202Z,26.37
2018-07-05T21:50:30.894Z,27.40
2018-07-05T21:54:44.782Z,28.77
2018-07-05T21:58:58.412Z,27.90
2018-07-05T22:03:12.023Z,27.13
2018-07-05T22:07:25.623Z,27.33
2018-07-05T22:11:39.397Z,28.63
2018-07-05T22:15:53.199Z,30.37
2018-07-05T22:20:12.579Z,27.40
2018-07-05T22:24:32.052Z,26.03
2018-07-05T22:28:51.462Z,24.30
2018-07-05T22:33:05.351Z,21.60
2018-07-05T22:37:19.063Z,20.33
2018-07-05T22:41:32.762Z,17.97
2018-07-05T22:45:46.339Z,19.30
2018-07-05T22:49:59.999Z,17.77
2018-07-05T22:54:13.492Z,19.27
2018-07-05T22:58:27.430Z,20.60
2018-07-05T23:02:41.203Z,20.13
2018-07-05T23:06:55.133Z,18.27
2018-07-05T23:11:09.097Z,16.23
2018-07-05T23:15:22.639Z,17.70
2018-07-05T23:19:36.213Z,17.83
2018-07-05T23:23:49.832Z,20.17
2018-07-05T23:28:03.672Z,18.80
2018-07-05T23:32:17.498Z,17.90
2018-07-05T23:36:31.172Z,19.13
2018-07-05T23:40:44.838Z,21.07
2018-07-05T23:44:58.597Z,19.13
2018-07-05T23:49:12.315Z,19.67
2018-07-05T23:53:26.035Z,18.50
2018-07-05T23:57:39.571Z,20.70
